createdAt,value
2018-04-29T00:00:58.744Z,1012.14
2018-04-29T00:02:07.579Z,1012.14
2018-04-29T00:03:16.414Z,1012.09
2018-04-29T00:04:25.280Z,1012.09
2018-04-29T00:05:34.080Z,1012.09
2018-04-29T00:06:42.911Z,1012.11
2018-04-29T00:07:51.745Z,1012.12
2018-04-29T00:09:00.578Z,1012.11
2018-04-29T00:10:09.417Z,1012.09
2018-04-29T00:11:18.245Z,1012.09
2018-04-29T00:12:27.357Z,1012.09
2018-04-29T00:13:36.190Z,1012.08
2018-04-29T00:14:45.303Z,1012.03
2018-04-29T00:15:54.139Z,1012.03
2018-04-29T00:17:03.249Z,1012
2018-04-29T00:18:12.166Z,1011.98
2018-04-29T00:19:20.963Z,1011.95
2018-04-29T00:20:29.798Z,1011.95
2018-04-29T00:21:38.631Z,1011.95
2018-04-29T00:22:47.736Z,1011.92
2018-04-29T00:23:56.852Z,1011.91
2018-04-29T00:25:05.963Z,1011.9
2018-04-29T00:26:14.795Z,1011.9
2018-04-29T00:27:23.628Z,1011.89
2018-04-29T00:28:32.462Z,1011.9
2018-04-29T00:29:41.447Z,1011.91
2018-04-29T00:30:50.281Z,1011.87
2018-04-29T00:31:59.118Z,1011.9
2018-04-29T00:33:07.952Z,1011.91
2018-04-29T00:34:16.784Z,1011.91
2018-04-29T00:35:26.082Z,1011.91
2018-04-29T00:36:34.916Z,1011.96
2018-04-29T00:37:43.750Z,1011.95
2018-04-29T00:38:52.584Z,1011.95
2018-04-29T00:40:01.422Z,1011.92
2018-04-29T00:41:10.260Z,1011.94
2018-04-29T00:42:19.091Z,1011.93
2018-04-29T00:43:27.928Z,1011.95
2018-04-29T00:44:36.762Z,1011.96
2018-04-29T00:45:45.596Z,1012.01
2018-04-29T00:46:54.577Z,1012
2018-04-29T00:48:03.413Z,1011.96
2018-04-29T00:49:12.246Z,1012.01
2018-04-29T00:50:21.350Z,1011.98
2018-04-29T00:51:30.183Z,1011.98
2018-04-29T00:52:39.167Z,1011.94
2018-04-29T00:53:48.276Z,1012.01
2018-04-29T00:54:57.385Z,1012.05
2018-04-29T00:56:06.493Z,1012.06
2018-04-29T00:57:15.326Z,1012.06
2018-04-29T00:58:24.715Z,1012.07
2018-04-29T00:59:33.828Z,1012.06
2018-04-29T01:00:42.664Z,1012.13
2018-04-29T01:01:51.499Z,1012.14
2018-04-29T01:03:00.337Z,1012.11
2018-04-29T01:04:09.220Z,1012.1
2018-04-29T01:05:18.331Z,1012.11
2018-04-29T01:06:27.162Z,1012.11
2018-04-29T01:07:35.994Z,1012.11
2018-04-29T01:08:44.825Z,1012.14
2018-04-29T01:09:53.658Z,1012.14
2018-04-29T01:11:02.493Z,1012.15
2018-04-29T01:12:11.612Z,1012.13
2018-04-29T01:13:20.449Z,1012.13
2018-04-29T01:14:29.284Z,1012.09
2018-04-29T01:15:38.219Z,1012.1
2018-04-29T01:16:47.053Z,1012.16
2018-04-29T01:17:55.884Z,1012.13
2018-04-29T01:19:04.991Z,1012.13
2018-04-29T01:20:13.825Z,1012.1
2018-04-29T01:21:23.183Z,1012.12
2018-04-29T01:22:32.019Z,1012.15
2018-04-29T01:23:40.851Z,1012.11
2018-04-29T01:24:49.685Z,1012.17
2018-04-29T01:25:58.518Z,1012.16
2018-04-29T01:27:07.778Z,1012.15
2018-04-29T01:28:16.889Z,1012.15
2018-04-29T01:29:25.724Z,1012.12
2018-04-29T01:30:34.557Z,1012.08
2018-04-29T01:31:43.388Z,1012.09
2018-04-29T01:32:52.373Z,1012.04
2018-04-29T01:34:01.204Z,1012.06
2018-04-29T01:35:10.034Z,1012.05
2018-04-29T01:36:19.150Z,1012.08
2018-04-29T01:37:27.983Z,1012.09
2018-04-29T01:38:36.870Z,1012.1
2018-04-29T01:39:45.697Z,1012.1
2018-04-29T01:40:54.533Z,1012.13
2018-04-29T01:42:03.640Z,1012.13
2018-04-29T01:43:12.476Z,1012.08
2018-04-29T01:44:21.410Z,1012.08
2018-04-29T01:45:30.518Z,1012.09
2018-04-29T01:46:39.354Z,1012.12
2018-04-29T01:47:48.191Z,1012.13
2018-04-29T01:48:57.569Z,1012.13
2018-04-29T01:50:06.710Z,1012.12
2018-04-29T01:51:15.815Z,1012.1
2018-04-29T01:52:24.647Z,1012.16
2018-04-29T01:53:33.754Z,1012.11
2018-04-29T01:54:42.584Z,1012.13
2018-04-29T01:55:51.525Z,1012.13
2018-04-29T01:57:00.354Z,1012.14
2018-04-29T01:58:09.461Z,1012.09
2018-04-29T01:59:18.298Z,1012.13
2018-04-29T02:00:27.399Z,1012.15
2018-04-29T02:01:36.381Z,1012.13
2018-04-29T02:02:45.495Z,1012.14
2018-04-29T02:03:54.604Z,1012.08
2018-04-29T02:05:03.440Z,1012.07
2018-04-29T02:06:12.274Z,1012.06
2018-04-29T02:07:21.206Z,1012.08
2018-04-29T02:08:30.041Z,1011.99
2018-04-29T02:09:39.149Z,1012.02
2018-04-29T02:10:47.984Z,1012.02
2018-04-29T02:11:57.092Z,1012.03
2018-04-29T02:13:06.304Z,1012.02
2018-04-29T02:14:15.136Z,1012.04
2018-04-29T02:15:23.965Z,1012.06
2018-04-29T02:16:32.798Z,1012.06
2018-04-29T02:17:41.635Z,1012.05
2018-04-29T02:18:50.469Z,1012.08
2018-04-29T02:19:59.299Z,1012.11
2018-04-29T02:21:08.408Z,1012.12
2018-04-29T02:22:17.513Z,1012.09
2018-04-29T02:23:26.350Z,1012.03
2018-04-29T02:24:35.486Z,1011.98
2018-04-29T02:25:44.593Z,1011.98
2018-04-29T02:26:53.424Z,1011.95
2018-04-29T02:28:02.264Z,1011.95
2018-04-29T02:29:11.360Z,1011.97
2018-04-29T02:30:20.363Z,1011.96
2018-04-29T02:31:29.305Z,1011.96
2018-04-29T02:32:38.021Z,1011.97
2018-04-29T02:33:46.854Z,1011.99
2018-04-29T02:34:55.970Z,1012.03
2018-04-29T02:36:05.180Z,1012.01
2018-04-29T02:37:14.301Z,1012.02
2018-04-29T02:38:23.412Z,1011.97
2018-04-29T02:39:32.352Z,1011.92
2018-04-29T02:40:41.748Z,1011.91
2018-04-29T02:41:51.263Z,1011.89
2018-04-29T02:43:00.097Z,1011.92
2018-04-29T02:44:09.502Z,1011.89
2018-04-29T02:45:18.611Z,1011.92
2018-04-29T02:46:27.444Z,1011.88
2018-04-29T02:47:36.555Z,1011.87
2018-04-29T02:48:45.668Z,1011.87
2018-04-29T02:49:54.776Z,1011.87
2018-04-29T02:51:03.885Z,1011.88
2018-04-29T02:52:12.720Z,1011.92
2018-04-29T02:53:21.655Z,1011.92
2018-04-29T02:54:30.779Z,1011.94
2018-04-29T02:55:39.612Z,1011.96
2018-04-29T02:56:48.728Z,1011.92
2018-04-29T02:57:57.839Z,1011.92
2018-04-29T02:59:07.248Z,1011.96
2018-04-29T03:00:16.356Z,1011.92
2018-04-29T03:01:25.461Z,1011.92
2018-04-29T03:02:34.576Z,1011.88
2018-04-29T03:03:43.975Z,1011.86
2018-04-29T03:04:53.091Z,1011.84
2018-04-29T03:06:02.197Z,1011.83
2018-04-29T03:07:11.027Z,1011.8
2018-04-29T03:08:20.136Z,1011.8
2018-04-29T03:09:28.972Z,1011.79
2018-04-29T03:10:38.281Z,1011.83
2018-04-29T03:11:47.403Z,1011.84
2018-04-29T03:12:56.229Z,1011.84
2018-04-29T03:14:05.336Z,1011.84
2018-04-29T03:15:14.172Z,1011.8
2018-04-29T03:16:23.282Z,1011.8
2018-04-29T03:17:32.735Z,1011.77
2018-04-29T03:18:41.503Z,1011.75
2018-04-29T03:19:50.612Z,1011.73
2018-04-29T03:20:59.443Z,1011.77
2018-04-29T03:22:08.424Z,1011.8
2018-04-29T03:23:17.255Z,1011.76
2018-04-29T03:24:26.124Z,1011.75
2018-04-29T03:25:34.923Z,1011.78
2018-04-29T03:26:43.756Z,1011.72
2018-04-29T03:27:52.592Z,1011.72
2018-04-29T03:29:01.426Z,1011.75
2018-04-29T03:30:10.260Z,1011.75
2018-04-29T03:31:19.642Z,1011.78
2018-04-29T03:32:29.456Z,1011.76
2018-04-29T03:33:38.445Z,1011.74
2018-04-29T03:34:47.282Z,1011.77
2018-04-29T03:35:56.110Z,1011.72
2018-04-29T03:37:04.941Z,1011.76
2018-04-29T03:38:13.773Z,1011.75
2018-04-29T03:39:23.031Z,1011.74
2018-04-29T03:40:31.865Z,1011.78
2018-04-29T03:41:40.698Z,1011.76
2018-04-29T03:42:50.098Z,1011.75
2018-04-29T03:43:58.930Z,1011.71
2018-04-29T03:45:08.014Z,1011.68
2018-04-29T03:46:16.855Z,1011.64
2018-04-29T03:47:25.968Z,1011.6
2018-04-29T03:48:34.795Z,1011.59
2018-04-29T03:49:43.905Z,1011.55
2018-04-29T03:50:52.735Z,1011.56
2018-04-29T03:52:01.565Z,1011.54
2018-04-29T03:53:10.396Z,1011.53
2018-04-29T03:54:19.508Z,1011.6
2018-04-29T03:55:28.624Z,1011.57
2018-04-29T03:56:37.562Z,1011.58
2018-04-29T03:57:46.392Z,1011.57
2018-04-29T03:58:55.231Z,1011.53
2018-04-29T04:00:04.060Z,1011.55
2018-04-29T04:01:12.891Z,1011.49
2018-04-29T04:02:21.727Z,1011.5
2018-04-29T04:03:30.899Z,1011.52
2018-04-29T04:04:40.004Z,1011.48
2018-04-29T04:05:48.838Z,1011.47
2018-04-29T04:06:57.677Z,1011.49
2018-04-29T04:08:06.560Z,1011.5
2018-04-29T04:09:15.672Z,1011.48
2018-04-29T04:10:24.504Z,1011.48
2018-04-29T04:11:33.337Z,1011.46
2018-04-29T04:12:42.170Z,1011.47
2018-04-29T04:13:51.434Z,1011.48
2018-04-29T04:15:00.266Z,1011.47
2018-04-29T04:16:09.102Z,1011.47
2018-04-29T04:17:18.212Z,1011.52
2018-04-29T04:18:27.050Z,1011.54
2018-04-29T04:19:36.139Z,1011.59
2018-04-29T04:20:44.967Z,1011.56
2018-04-29T04:21:54.089Z,1011.61
2018-04-29T04:23:03.195Z,1011.64
2018-04-29T04:24:12.307Z,1011.68
2018-04-29T04:25:21.441Z,1011.71
2018-04-29T04:26:30.272Z,1011.68
2018-04-29T04:27:39.105Z,1011.75
2018-04-29T04:28:48.038Z,1011.78
2018-04-29T04:29:57.145Z,1011.73
2018-04-29T04:31:05.980Z,1011.76
2018-04-29T04:32:14.818Z,1011.8
2018-04-29T04:33:23.650Z,1011.79
2018-04-29T04:34:32.483Z,1011.82
2018-04-29T04:35:41.586Z,1011.82
2018-04-29T04:36:50.997Z,1011.85
2018-04-29T04:37:59.831Z,1011.84
2018-04-29T04:39:08.662Z,1011.83
2018-04-29T04:40:17.539Z,1011.83
2018-04-29T04:41:26.330Z,1011.8
2018-04-29T04:42:35.696Z,1011.76
2018-04-29T04:43:44.807Z,1011.59
2018-04-29T04:44:53.646Z,1011.54
2018-04-29T04:46:02.482Z,1011.45
2018-04-29T04:47:11.587Z,1011.43
2018-04-29T04:48:20.418Z,1011.51
2018-04-29T04:49:29.252Z,1011.63
2018-04-29T04:50:38.122Z,1011.7
2018-04-29T04:51:47.349Z,1011.73
2018-04-29T04:52:56.183Z,1011.7
2018-04-29T04:54:05.015Z,1011.75
2018-04-29T04:55:14.129Z,1011.7
2018-04-29T04:56:23.514Z,1011.69
2018-04-29T04:57:32.398Z,1011.72
2018-04-29T04:58:41.502Z,1011.78
2018-04-29T04:59:50.385Z,1011.82
2018-04-29T05:00:59.220Z,1011.89
2018-04-29T05:02:08.054Z,1011.85
2018-04-29T05:03:17.165Z,1011.89
2018-04-29T05:04:25.993Z,1011.87
2018-04-29T05:05:35.126Z,1011.89
2018-04-29T05:06:43.962Z,1011.91
2018-04-29T05:07:52.798Z,1011.88
2018-04-29T05:09:01.643Z,1011.85
2018-04-29T05:10:10.475Z,1011.88
2018-04-29T05:11:19.732Z,1011.8
2018-04-29T05:12:28.565Z,1011.8
2018-04-29T05:13:37.459Z,1011.82
2018-04-29T05:14:46.913Z,1011.8
2018-04-29T05:15:55.747Z,1011.8
2018-04-29T05:17:04.857Z,1011.75
2018-04-29T05:18:13.971Z,1011.83
2018-04-29T05:19:22.803Z,1011.82
2018-04-29T05:20:31.915Z,1011.79
2018-04-29T05:21:40.751Z,1011.86
2018-04-29T05:22:49.907Z,1011.88
2018-04-29T05:23:59.014Z,1011.88
2018-04-29T05:25:07.847Z,1011.93
2018-04-29T05:26:16.681Z,1011.92
2018-04-29T05:27:25.513Z,1011.94
2018-04-29T05:28:34.448Z,1011.94
2018-04-29T05:29:43.286Z,1011.88
2018-04-29T05:30:52.120Z,1011.88
2018-04-29T05:32:01.235Z,1011.87
2018-04-29T05:33:10.349Z,1011.86
2018-04-29T05:34:19.283Z,1011.82
2018-04-29T05:35:28.202Z,1011.84
2018-04-29T05:36:36.951Z,1011.86
2018-04-29T05:37:46.060Z,1011.84
2018-04-29T05:38:54.894Z,1011.84
2018-04-29T05:40:04.300Z,1011.84
2018-04-29T05:41:13.134Z,1011.88
2018-04-29T05:42:21.967Z,1011.91
2018-04-29T05:43:31.082Z,1011.92
2018-04-29T05:44:39.917Z,1011.89
2018-04-29T05:45:49.056Z,1011.93
2018-04-29T05:46:57.888Z,1011.94
2018-04-29T05:48:06.997Z,1011.94
2018-04-29T05:49:15.832Z,1011.95
2018-04-29T05:50:24.668Z,1012
2018-04-29T05:51:34.032Z,1012
2018-04-29T05:52:43.140Z,1012.04
2018-04-29T05:53:51.974Z,1012.06
2018-04-29T05:55:00.810Z,1012.1
2018-04-29T05:56:09.927Z,1012.12
2018-04-29T05:57:18.858Z,1012.1
2018-04-29T05:58:27.691Z,1012.07
2018-04-29T05:59:36.527Z,1012.11
2018-04-29T06:00:45.362Z,1012.09
2018-04-29T06:01:54.199Z,1012.07
2018-04-29T06:03:03.280Z,1012.05
2018-04-29T06:04:12.114Z,1012.05
2018-04-29T06:05:20.950Z,1012.09
2018-04-29T06:06:29.873Z,1012.11
2018-04-29T06:07:39.013Z,1012.08
2018-04-29T06:08:47.845Z,1012.11
2018-04-29T06:09:56.678Z,1012.09
2018-04-29T06:11:05.798Z,1012.09
2018-04-29T06:12:14.897Z,1012.08
2018-04-29T06:13:23.742Z,1012.04
2018-04-29T06:14:32.728Z,1012.05
2018-04-29T06:15:41.840Z,1012.04
2018-04-29T06:16:50.671Z,1012.12
2018-04-29T06:17:59.782Z,1012.11
2018-04-29T06:19:08.617Z,1012.13
2018-04-29T06:20:18.122Z,1012.1
2018-04-29T06:21:26.957Z,1012.15
2018-04-29T06:22:36.065Z,1012.11
2018-04-29T06:23:44.898Z,1012.18
2018-04-29T06:24:53.732Z,1012.2
2018-04-29T06:26:02.809Z,1012.19
2018-04-29T06:27:11.943Z,1012.19
2018-04-29T06:28:21.051Z,1012.19
2018-04-29T06:29:29.885Z,1012.2
2018-04-29T06:30:38.723Z,1012.17
2018-04-29T06:31:47.701Z,1012.13
2018-04-29T06:32:56.821Z,1012.13
2018-04-29T06:34:05.662Z,1012.05
2018-04-29T06:35:14.490Z,1012.06
2018-04-29T06:36:23.618Z,1012.08
2018-04-29T06:37:32.451Z,1012.06
2018-04-29T06:38:41.357Z,1012.11
2018-04-29T06:39:50.849Z,1012.11
2018-04-29T06:40:59.680Z,1012.17
2018-04-29T06:42:08.514Z,1012.18
2018-04-29T06:43:17.499Z,1012.2
2018-04-29T06:44:26.609Z,1012.2
2018-04-29T06:45:35.451Z,1012.19
2018-04-29T06:46:44.632Z,1012.19
2018-04-29T06:47:53.739Z,1012.14
2018-04-29T06:49:02.850Z,1012.11
2018-04-29T06:50:11.683Z,1012.02
2018-04-29T06:51:20.520Z,1012.03
2018-04-29T06:52:29.356Z,1012.02
2018-04-29T06:53:38.470Z,1012.03
2018-04-29T06:54:47.632Z,1012.02
2018-04-29T06:55:56.471Z,1012.02
2018-04-29T06:57:05.316Z,1012.04
2018-04-29T06:58:14.149Z,1012.01
2018-04-29T06:59:22.982Z,1012.02
2018-04-29T07:00:31.918Z,1012.03
2018-04-29T07:01:41.036Z,1012.03
2018-04-29T07:02:49.870Z,1012.01
2018-04-29T07:03:58.707Z,1012.01
2018-04-29T07:05:07.816Z,1011.96
2018-04-29T07:06:16.648Z,1011.93
2018-04-29T07:07:25.483Z,1011.93
2018-04-29T07:08:34.317Z,1011.87
2018-04-29T07:09:43.156Z,1011.85
2018-04-29T07:10:52.269Z,1011.86
2018-04-29T07:12:01.257Z,1011.81
2018-04-29T07:13:10.104Z,1011.78
2018-04-29T07:14:18.934Z,1011.8
2018-04-29T07:15:27.771Z,1011.83
2018-04-29T07:16:36.882Z,1011.81
2018-04-29T07:17:46.141Z,1011.8
2018-04-29T07:18:54.975Z,1011.86
2018-04-29T07:20:04.108Z,1011.82
2018-04-29T07:21:12.928Z,1011.79
2018-04-29T07:22:21.760Z,1011.76
2018-04-29T07:23:30.597Z,1011.73
2018-04-29T07:24:39.433Z,1011.67
2018-04-29T07:25:48.266Z,1011.73
2018-04-29T07:26:57.388Z,1011.72
2018-04-29T07:28:06.223Z,1011.77
2018-04-29T07:29:15.158Z,1011.79
2018-04-29T07:30:23.992Z,1011.79
2018-04-29T07:31:32.826Z,1011.76
2018-04-29T07:32:41.668Z,1011.78
2018-04-29T07:33:50.501Z,1011.77
2018-04-29T07:35:00.035Z,1011.82
2018-04-29T07:36:09.147Z,1011.75
2018-04-29T07:37:18.255Z,1011.75
2018-04-29T07:38:27.087Z,1011.79
2018-04-29T07:39:36.265Z,1011.84
2018-04-29T07:40:45.250Z,1011.78
2018-04-29T07:41:54.088Z,1011.76
2018-04-29T07:43:02.923Z,1011.76
2018-04-29T07:44:11.757Z,1011.74
2018-04-29T07:45:20.597Z,1011.68
2018-04-29T07:46:29.555Z,1011.61
2018-04-29T07:47:38.682Z,1011.62
2018-04-29T07:48:47.520Z,1011.57
2018-04-29T07:49:56.631Z,1011.55
2018-04-29T07:51:05.460Z,1011.56
2018-04-29T07:52:14.683Z,1011.51
2018-04-29T07:53:23.840Z,1011.56
2018-04-29T07:54:32.955Z,1011.56
2018-04-29T07:55:41.792Z,1011.59
2018-04-29T07:56:50.901Z,1011.59
2018-04-29T07:58:00.393Z,1011.58
2018-04-29T07:59:09.229Z,1011.56
2018-04-29T08:00:18.063Z,1011.6
2018-04-29T08:01:26.896Z,1011.58
2018-04-29T08:02:35.734Z,1011.66
2018-04-29T08:03:44.844Z,1011.67
2018-04-29T08:04:53.953Z,1011.66
2018-04-29T08:06:02.792Z,1011.65
2018-04-29T08:07:11.626Z,1011.62
2018-04-29T08:08:20.460Z,1011.65
2018-04-29T08:09:29.293Z,1011.6
2018-04-29T08:10:38.409Z,1011.61
2018-04-29T08:11:47.322Z,1011.67
2018-04-29T08:12:56.080Z,1011.64
2018-04-29T08:14:04.918Z,1011.65
2018-04-29T08:15:14.054Z,1011.65
2018-04-29T08:16:22.889Z,1011.68
2018-04-29T08:17:31.722Z,1011.68
2018-04-29T08:18:40.556Z,1011.67
2018-04-29T08:19:49.669Z,1011.72
2018-04-29T08:20:58.931Z,1011.71
2018-04-29T08:22:07.767Z,1011.71
2018-04-29T08:23:16.600Z,1011.7
2018-04-29T08:24:25.432Z,1011.74
2018-04-29T08:25:34.274Z,1011.74
2018-04-29T08:26:43.211Z,1011.72
2018-04-29T08:27:52.051Z,1011.75
2018-04-29T08:29:00.892Z,1011.73
2018-04-29T08:30:10.093Z,1011.68
2018-04-29T08:31:18.849Z,1011.69
2018-04-29T08:32:27.837Z,1011.68
2018-04-29T08:34:09.027Z,1011.7
2018-04-29T08:35:17.864Z,1011.66
2018-04-29T08:36:26.697Z,1011.67
2018-04-29T08:37:36.007Z,1011.65
2018-04-29T08:38:44.843Z,1011.69
2018-04-29T08:39:53.680Z,1011.69
2018-04-29T08:41:02.517Z,1011.71
2018-04-29T08:42:11.353Z,1011.73
2018-04-29T08:43:20.303Z,1011.72
2018-04-29T08:44:29.028Z,1011.72
2018-04-29T08:45:37.864Z,1011.77
2018-04-29T08:46:46.701Z,1011.8
2018-04-29T08:47:55.537Z,1011.82
2018-04-29T08:49:04.531Z,1011.79
2018-04-29T08:50:13.410Z,1011.72
2018-04-29T08:51:22.197Z,1011.71
2018-04-29T08:52:31.039Z,1011.59
2018-04-29T08:53:40.151Z,1011.56
2018-04-29T08:54:49.178Z,1011.55
2018-04-29T08:55:58.057Z,1011.53
2018-04-29T08:57:07.204Z,1011.57
2018-04-29T08:58:16.041Z,1011.62
2018-04-29T08:59:24.878Z,1011.64
2018-04-29T09:00:33.914Z,1011.63
2018-04-29T09:01:42.788Z,1011.59
2018-04-29T09:02:51.589Z,1011.55
2018-04-29T09:04:00.452Z,1011.58
2018-04-29T09:05:09.266Z,1011.51
2018-04-29T09:06:18.102Z,1011.52
2018-04-29T09:07:26.943Z,1011.52
2018-04-29T09:08:35.784Z,1011.56
2018-04-29T09:09:44.893Z,1011.52
2018-04-29T09:10:54.007Z,1011.61
2018-04-29T09:12:03.174Z,1011.59
2018-04-29T09:13:12.298Z,1011.58
2018-04-29T09:14:21.133Z,1011.57
2018-04-29T09:15:30.282Z,1011.5
2018-04-29T09:16:39.126Z,1011.48
2018-04-29T09:17:48.988Z,1011.47
2018-04-29T09:18:57.828Z,1011.46
2018-04-29T09:20:06.666Z,1011.53
2018-04-29T09:21:15.504Z,1011.52
2018-04-29T09:22:24.344Z,1011.58
2018-04-29T09:23:33.181Z,1011.58
2018-04-29T09:24:42.293Z,1011.61
2018-04-29T09:25:51.139Z,1011.58
2018-04-29T09:26:59.984Z,1011.56
2018-04-29T09:28:09.096Z,1011.51
2018-04-29T09:29:17.932Z,1011.43
2018-04-29T09:30:26.770Z,1011.44
2018-04-29T09:31:35.665Z,1011.34
2018-04-29T09:32:44.448Z,1011.35
2018-04-29T09:33:53.287Z,1011.32
2018-04-29T09:35:02.128Z,1011.34
2018-04-29T09:36:10.968Z,1011.35
2018-04-29T09:37:19.806Z,1011.39
2018-04-29T09:38:28.651Z,1011.4
2018-04-29T09:39:37.481Z,1011.39
2018-04-29T09:40:46.593Z,1011.37
2018-04-29T09:41:55.709Z,1011.39
2018-04-29T09:43:04.548Z,1011.35
2018-04-29T09:44:13.391Z,1011.39
2018-04-29T09:45:22.509Z,1011.4
2018-04-29T09:46:31.625Z,1011.43
2018-04-29T09:47:40.568Z,1011.44
2018-04-29T09:48:49.538Z,1011.47
2018-04-29T09:49:58.244Z,1011.49
2018-04-29T09:51:07.086Z,1011.48
2018-04-29T09:52:16.075Z,1011.46
2018-04-29T09:53:24.912Z,1011.41
2018-04-29T09:54:33.750Z,1011.37
2018-04-29T09:55:42.590Z,1011.36
2018-04-29T09:56:51.433Z,1011.34
2018-04-29T09:58:00.674Z,1011.3
2018-04-29T09:59:09.786Z,1011.27
2018-04-29T10:00:18.633Z,1011.28
2018-04-29T10:01:27.742Z,1011.28
2018-04-29T10:02:36.581Z,1011.26
2018-04-29T10:03:46.220Z,1011.25
2018-04-29T10:04:55.058Z,1011.2
2018-04-29T10:06:04.177Z,1011.18
2018-04-29T10:07:13.018Z,1011.18
2018-04-29T10:08:21.854Z,1011.15
2018-04-29T10:09:30.717Z,1011.15
2018-04-29T10:10:40.309Z,1011.16
2018-04-29T10:11:49.148Z,1011.18
2018-04-29T10:12:57.991Z,1011.23
2018-04-29T10:14:06.830Z,1011.24
2018-04-29T10:15:15.923Z,1011.29
2018-04-29T10:16:24.821Z,1011.32
2018-04-29T10:17:33.602Z,1011.27
2018-04-29T10:18:42.449Z,1011.28
2018-04-29T10:19:51.682Z,1011.19
2018-04-29T10:21:00.525Z,1011.18
2018-04-29T10:22:09.641Z,1011.14
2018-04-29T10:23:18.482Z,1011.1
2018-04-29T10:24:27.319Z,1011.08
2018-04-29T10:25:36.159Z,1011.03
2018-04-29T10:26:45.247Z,1010.99
2018-04-29T10:27:54.084Z,1010.99
2018-04-29T10:29:02.921Z,1010.97
2018-04-29T10:30:12.041Z,1011.02
2018-04-29T10:31:21.209Z,1011
2018-04-29T10:32:30.523Z,1011.04
2018-04-29T10:33:39.238Z,1011.02
2018-04-29T10:34:48.080Z,1011.07
2018-04-29T10:35:56.922Z,1011.07
2018-04-29T10:37:06.037Z,1011.07
2018-04-29T10:38:14.876Z,1011.05
2018-04-29T10:39:23.715Z,1011.02
2018-04-29T10:40:32.553Z,1010.99
2018-04-29T10:41:41.671Z,1010.98
2018-04-29T10:42:50.512Z,1010.97
2018-04-29T10:43:59.448Z,1010.88
2018-04-29T10:45:08.558Z,1010.86
2018-04-29T10:46:17.394Z,1010.8
2018-04-29T10:47:26.235Z,1010.79
2018-04-29T10:48:35.348Z,1010.79
2018-04-29T10:49:44.287Z,1010.82
2018-04-29T10:50:53.405Z,1010.82
2018-04-29T10:52:02.248Z,1010.76
2018-04-29T10:53:11.366Z,1010.83
2018-04-29T10:54:20.203Z,1010.82
2018-04-29T10:55:29.191Z,1010.81
2018-04-29T10:56:38.351Z,1010.78
2018-04-29T10:57:47.143Z,1010.8
2018-04-29T10:58:56.256Z,1010.75
2018-04-29T11:00:05.371Z,1010.69
2018-04-29T11:01:14.257Z,1010.67
2018-04-29T11:02:23.093Z,1010.65
2018-04-29T11:03:32.205Z,1010.63
2018-04-29T11:04:41.043Z,1010.67
2018-04-29T11:05:49.880Z,1010.68
2018-04-29T11:06:58.722Z,1010.65
2018-04-29T11:08:07.564Z,1010.68
2018-04-29T11:09:16.402Z,1010.66
2018-04-29T11:10:25.235Z,1010.67
2018-04-29T11:11:34.623Z,1010.65
2018-04-29T11:12:43.459Z,1010.64
2018-04-29T11:13:52.298Z,1010.57
2018-04-29T11:15:01.137Z,1010.53
2018-04-29T11:16:09.980Z,1010.47
2018-04-29T11:17:18.815Z,1010.47
2018-04-29T11:18:27.805Z,1010.41
2018-04-29T11:19:36.914Z,1010.41
2018-04-29T11:20:45.753Z,1010.38
2018-04-29T11:21:54.592Z,1010.34
2018-04-29T11:23:03.433Z,1010.38
2018-04-29T11:24:12.269Z,1010.37
2018-04-29T11:25:21.109Z,1010.36
2018-04-29T11:26:29.951Z,1010.39
2018-04-29T11:27:38.790Z,1010.36
2018-04-29T11:28:47.626Z,1010.4
2018-04-29T11:29:56.893Z,1010.36
2018-04-29T11:31:05.730Z,1010.29
2018-04-29T11:32:14.568Z,1010.27
2018-04-29T11:33:23.682Z,1010.22
2018-04-29T11:34:32.524Z,1010.22
2018-04-29T11:35:41.636Z,1010.18
2018-04-29T11:36:50.472Z,1010.12
2018-04-29T11:37:59.593Z,1010.05
2018-04-29T11:39:08.431Z,1010.02
2018-04-29T11:40:17.295Z,1010.04
2018-04-29T11:41:26.257Z,1010.05
2018-04-29T11:42:35.096Z,1010.03
2018-04-29T11:43:44.208Z,1009.99
2018-04-29T11:44:53.321Z,1009.96
2018-04-29T11:46:02.434Z,1009.88
2018-04-29T11:47:11.574Z,1009.81
2018-04-29T11:48:20.686Z,1009.65
2018-04-29T11:49:29.527Z,1009.55
2018-04-29T11:50:38.638Z,1009.47
2018-04-29T11:51:47.480Z,1009.52
2018-04-29T11:52:56.316Z,1009.58
2018-04-29T11:54:05.154Z,1009.66
2018-04-29T11:55:13.992Z,1009.76
2018-04-29T11:56:22.831Z,1009.84
2018-04-29T11:57:31.674Z,1009.92
2018-04-29T11:58:40.849Z,1009.96
2018-04-29T11:59:49.690Z,1010.02
2018-04-29T12:00:58.806Z,1010.02
2018-04-29T12:02:07.645Z,1009.96
2018-04-29T12:03:16.757Z,1010
2018-04-29T12:04:26.020Z,1009.96
2018-04-29T12:05:34.913Z,1009.98
2018-04-29T12:06:43.752Z,1009.94
2018-04-29T12:07:52.592Z,1009.92
2018-04-29T12:09:01.430Z,1009.92
2018-04-29T12:10:10.372Z,1009.9
2018-04-29T12:11:19.484Z,1009.9
2018-04-29T12:12:28.323Z,1009.9
2018-04-29T12:13:37.165Z,1009.9
2018-04-29T12:14:45.999Z,1009.84
2018-04-29T12:15:54.837Z,1009.78
2018-04-29T12:17:03.953Z,1009.8
2018-04-29T12:18:12.789Z,1009.82
2018-04-29T12:19:21.628Z,1009.82
2018-04-29T12:20:30.744Z,1009.77
2018-04-29T12:21:39.678Z,1009.68
2018-04-29T12:22:48.517Z,1009.62
2018-04-29T12:23:57.633Z,1009.58
2018-04-29T12:25:06.749Z,1009.6
2018-04-29T12:26:15.587Z,1009.59
2018-04-29T12:27:24.426Z,1009.61
2018-04-29T12:28:33.538Z,1009.61
2018-04-29T12:29:42.381Z,1009.59
2018-04-29T12:30:51.491Z,1009.51
2018-04-29T12:32:00.337Z,1009.48
2018-04-29T12:33:09.458Z,1009.49
2018-04-29T12:34:18.308Z,1009.46
2018-04-29T12:35:27.140Z,1009.44
2018-04-29T12:36:36.256Z,1009.44
2018-04-29T12:37:45.096Z,1009.43
2018-04-29T12:38:54.232Z,1009.44
2018-04-29T12:40:03.347Z,1009.4
2018-04-29T12:41:12.184Z,1009.33
2018-04-29T12:42:21.024Z,1009.31
2018-04-29T12:43:29.864Z,1009.32
2018-04-29T12:44:38.706Z,1009.26
2018-04-29T12:45:47.543Z,1009.31
2018-04-29T12:46:56.382Z,1009.28
2018-04-29T12:48:05.223Z,1009.28
2018-04-29T12:49:14.341Z,1009.24
2018-04-29T12:50:23.286Z,1009.2
2018-04-29T12:51:32.129Z,1009.18
2018-04-29T12:52:40.971Z,1009.12
2018-04-29T12:53:50.086Z,1009.12
2018-04-29T12:54:58.928Z,1009.11
2018-04-29T12:56:07.772Z,1009.1
2018-04-29T12:57:16.614Z,1009.06
2018-04-29T12:58:25.457Z,1009.06
2018-04-29T12:59:34.298Z,1009.01
2018-04-29T13:00:43.143Z,1009.02
2018-04-29T13:01:52.409Z,1009.08
2018-04-29T13:03:01.250Z,1009.06
2018-04-29T13:04:10.369Z,1009.07
2018-04-29T13:05:19.210Z,1009.05
2018-04-29T13:06:28.332Z,1009.05
2018-04-29T13:07:37.228Z,1009.03
2018-04-29T13:08:46.347Z,1009
2018-04-29T13:09:55.190Z,1008.99
2018-04-29T13:11:04.035Z,1009.02
2018-04-29T13:12:12.880Z,1008.97
2018-04-29T13:13:21.927Z,1008.94
2018-04-29T13:14:30.773Z,1008.87
2018-04-29T13:15:39.898Z,1008.93
2018-04-29T13:16:48.744Z,1008.91
2018-04-29T13:17:57.589Z,1008.9
2018-04-29T13:19:07.111Z,1008.82
2018-04-29T13:20:15.955Z,1008.84
2018-04-29T13:21:24.802Z,1008.77
2018-04-29T13:22:33.648Z,1008.68
2018-04-29T13:23:42.500Z,1008.7
2018-04-29T13:24:51.667Z,1008.71
2018-04-29T13:26:00.511Z,1008.65
2018-04-29T13:27:09.360Z,1008.61
2018-04-29T13:28:18.204Z,1008.62
2018-04-29T13:29:27.052Z,1008.54
2018-04-29T13:30:36.817Z,1008.51
2018-04-29T13:31:45.660Z,1008.55
2018-04-29T13:32:54.506Z,1008.56
2018-04-29T13:34:03.349Z,1008.49
2018-04-29T13:35:12.193Z,1008.66
2018-04-29T13:36:21.138Z,1008.62
2018-04-29T13:37:29.981Z,1008.53
2018-04-29T13:38:38.826Z,1008.54
2018-04-29T13:39:47.668Z,1008.65
2018-04-29T13:40:56.835Z,1008.53
2018-04-29T13:42:05.859Z,1008.52
2018-04-29T13:43:15.431Z,1008.45
2018-04-29T13:44:24.826Z,1008.75
2018-04-29T13:45:33.673Z,1008.66
2018-04-29T13:46:42.519Z,1008.44
2018-04-29T13:47:51.744Z,1008.35
2018-04-29T13:49:00.877Z,1008.32
2018-04-29T13:50:09.993Z,1008.25
2018-04-29T13:51:18.842Z,1008.19
2018-04-29T13:52:27.685Z,1008.14
2018-04-29T13:53:36.731Z,1008.2
2018-04-29T13:54:45.579Z,1008.05
2018-04-29T13:55:54.426Z,1008.05
2018-04-29T13:57:03.274Z,1008.08
2018-04-29T13:58:12.126Z,1008.06